createdAt,value
2018-06-11T00:01:50.939Z,99594.31
2018-06-11T00:04:19.934Z,99602.70
2018-06-11T00:06:48.930Z,99606.77
2018-06-11T00:09:17.911Z,99605.77
2018-06-11T00:11:46.968Z,99606.31
2018-06-11T00:14:15.973Z,99609.60
2018-06-11T00:16:44.985Z,99608.58
2018-06-11T00:19:14.025Z,99608.04
2018-06-11T00:21:43.029Z,99613.02
2018-06-11T00:24:12.048Z,99609.85
2018-06-11T00:26:41.041Z,99613.71
2018-06-11T00:29:10.107Z,99613.14
2018-06-11T00:31:39.135Z,99613.26
2018-06-11T00:34:08.248Z,99614.08
2018-06-11T00:36:37.378Z,99615.09
2018-06-11T00:39:08.346Z,99619.95
2018-06-11T00:41:37.419Z,99621.66
2018-06-11T00:44:06.505Z,99616.78
2018-06-11T00:46:35.609Z,99615.55
2018-06-11T00:49:04.808Z,99618.02
2018-06-11T00:51:34.220Z,99616.42
2018-06-11T00:56:56.099Z,99619.14
2018-06-11T00:59:25.314Z,99625.38
2018-06-11T01:01:54.372Z,99627.73
2018-06-11T01:04:23.373Z,99629.30
2018-06-11T01:06:52.455Z,99623.87
2018-06-11T01:09:23.410Z,99627.48
2018-06-11T01:11:52.582Z,99622.05
2018-06-11T01:14:21.629Z,99626.79
2018-06-11T01:16:50.627Z,99621.27
2018-06-11T01:19:19.666Z,99620.16
2018-06-11T01:21:48.667Z,99618.47
2018-06-11T01:24:17.670Z,99618.89
2018-06-11T01:26:46.771Z,99615.31
2018-06-11T01:29:15.778Z,99613.26
2018-06-11T01:31:44.791Z,99616.78
2018-06-11T01:34:13.812Z,99621.55
2018-06-11T01:36:42.830Z,99621.55
2018-06-11T01:39:11.818Z,99620.77
2018-06-11T01:41:40.836Z,99617.93
2018-06-11T01:44:09.864Z,99612.59
2018-06-11T01:46:38.868Z,99615.07
2018-06-11T01:49:07.917Z,99613.95
2018-06-11T01:51:37.021Z,99607.14
2018-06-11T01:54:06.026Z,99601.92
2018-06-11T01:56:35.035Z,99602.16
2018-06-11T01:59:04.026Z,99601.72
2018-06-11T02:01:33.077Z,99600.60
2018-06-11T02:04:02.388Z,99600.18
2018-06-11T02:06:31.417Z,99605.84
2018-06-11T02:09:00.447Z,99603.13
2018-06-11T02:11:29.459Z,99610.60
2018-06-11T02:13:58.468Z,99620.55
2018-06-11T02:16:27.491Z,99622.78
2018-06-11T02:18:56.652Z,99622.12
2018-06-11T02:21:26.472Z,99621.19
2018-06-11T02:23:55.546Z,99622.88
2018-06-11T02:26:24.667Z,99624.11
2018-06-11T02:28:53.806Z,99626.16
2018-06-11T02:31:22.937Z,99615.40
2018-06-11T02:33:52.022Z,99614.16
2018-06-11T02:36:21.048Z,99606.48
2018-06-11T02:38:50.104Z,99613.95
2018-06-11T02:41:19.125Z,99614.73
2018-06-11T02:43:48.185Z,99616.67
2018-06-11T02:46:17.226Z,99617.81
2018-06-11T02:48:46.376Z,99613.17
2018-06-11T02:51:15.493Z,99616.57
2018-06-11T02:53:44.493Z,99611.84
2018-06-11T02:56:13.530Z,99617.27
2018-06-11T02:58:42.538Z,99619.28
2018-06-11T03:01:11.651Z,99623.70
2018-06-11T03:03:40.715Z,99620.09
2018-06-11T03:06:09.817Z,99622.69
2018-06-11T03:08:38.836Z,99624.71
2018-06-11T03:11:07.853Z,99627.63
2018-06-11T03:13:36.920Z,99636.55
2018-06-11T03:16:05.903Z,99640.86
2018-06-11T03:18:34.959Z,99641.20
2018-06-11T03:21:03.971Z,99637.67
2018-06-11T03:23:33.002Z,99643.44
2018-06-11T03:26:02.109Z,99649.31
2018-06-11T03:28:31.089Z,99654.16
2018-06-11T03:31:00.520Z,99653.95
2018-06-11T03:33:29.524Z,99656.64
2018-06-11T03:35:58.550Z,99663.42
2018-06-11T03:38:27.622Z,99663.42
2018-06-11T03:40:56.848Z,99663.17
2018-06-11T03:43:25.941Z,99666.34
2018-06-11T03:45:54.988Z,99661.12
2018-06-11T03:48:23.983Z,99663.38
2018-06-11T03:50:53.498Z,99655.69
2018-06-11T03:53:22.502Z,99653.52
2018-06-11T03:55:51.538Z,99649.09
2018-06-11T03:58:20.615Z,99644.77
2018-06-11T04:00:49.827Z,99650.86
2018-06-11T04:03:18.949Z,99660.36
2018-06-11T04:05:48.373Z,99665.80
2018-06-11T04:08:17.396Z,99669.98
2018-06-11T04:10:46.438Z,99677.31
2018-06-11T04:13:15.493Z,99687.41
2018-06-11T04:15:44.576Z,99686.84
2018-06-11T04:18:13.584Z,99684.77
2018-06-11T04:20:42.701Z,99686.25
2018-06-11T04:23:11.730Z,99680.25
2018-06-11T04:25:40.874Z,99677.74
2018-06-11T04:28:09.983Z,99680.91
2018-06-11T04:30:39.162Z,99678.30
2018-06-11T04:33:08.173Z,99682.70
2018-06-11T04:35:37.213Z,99680.84
2018-06-11T04:38:06.229Z,99686.88
2018-06-11T04:40:35.286Z,99684.73
2018-06-11T04:43:04.268Z,99680.58
2018-06-11T04:45:33.343Z,99677.65
2018-06-11T04:48:02.360Z,99676.11
2018-06-11T04:50:31.480Z,99683.11
2018-06-11T04:53:00.461Z,99680.88
2018-06-11T04:55:29.448Z,99679.83
2018-06-11T04:57:58.692Z,99693.53
2018-06-11T05:00:27.721Z,99687.14
2018-06-11T05:02:56.803Z,99697.61
2018-06-11T05:05:25.857Z,99694.08
2018-06-11T05:07:54.983Z,99691.02
2018-06-11T05:10:24.120Z,99692.51
2018-06-11T05:12:53.231Z,99688.13
2018-06-11T05:15:22.270Z,99687.50
2018-06-11T05:17:51.248Z,99696.36
2018-06-11T05:20:20.283Z,99695.26
2018-06-11T05:22:49.360Z,99692.03
2018-06-11T05:25:18.355Z,99695.84
2018-06-11T05:27:47.356Z,99698.88
2018-06-11T05:30:16.333Z,99699.34
2018-06-11T05:32:45.432Z,99700.09
2018-06-11T05:35:14.479Z,99700.78
2018-06-11T05:37:43.548Z,99701.02
2018-06-11T05:40:12.537Z,99703.56
2018-06-11T05:42:41.616Z,99703.73
2018-06-11T05:45:10.653Z,99706.18
2018-06-11T05:47:39.644Z,99706.11
2018-06-11T05:50:08.714Z,99699.62
2018-06-11T05:52:37.800Z,99704.28
2018-06-11T05:55:06.801Z,99698.36
2018-06-11T05:57:35.861Z,99697.70
2018-06-11T06:00:05.089Z,99703.83
2018-06-11T06:02:34.108Z,99706.58
2018-06-11T06:05:03.079Z,99713.09
2018-06-11T06:07:32.078Z,99721.49
2018-06-11T06:10:01.445Z,99720.56
2018-06-11T06:12:30.415Z,99723.17
2018-06-11T06:14:59.425Z,99721.38
2018-06-11T06:17:28.454Z,99726.25
2018-06-11T06:19:57.507Z,99725.89
2018-06-11T06:22:26.630Z,99732.70
2018-06-11T06:24:55.752Z,99726.92
2018-06-11T06:27:24.764Z,99731.20
2018-06-11T06:29:53.851Z,99733.09
2018-06-11T06:32:22.861Z,99728.47
2018-06-11T06:34:51.949Z,99728.23
2018-06-11T06:37:20.971Z,99725.07
2018-06-11T06:39:50.001Z,99724.38
2018-06-11T06:42:19.000Z,99721.08
2018-06-11T06:44:48.014Z,99725.02
2018-06-11T06:47:17.027Z,99730.38
2018-06-11T06:49:46.034Z,99734.63
2018-06-11T06:52:15.019Z,99728.06
2018-06-11T06:54:44.046Z,99724.17
2018-06-11T06:57:13.049Z,99714.29
2018-06-11T06:59:42.036Z,99708.89
2018-06-11T07:02:11.243Z,99708.09
2018-06-11T07:04:40.367Z,99715.31
2018-06-11T07:07:09.461Z,99713.57
2018-06-11T07:09:38.499Z,99710.73
2018-06-11T07:12:07.512Z,99708.45
2018-06-11T07:14:36.509Z,99708.48
2018-06-11T07:17:05.524Z,99709.00
2018-06-11T07:19:34.554Z,99708.86
2018-06-11T07:22:03.623Z,99703.30
2018-06-11T07:24:32.685Z,99697.66
2018-06-11T07:27:01.737Z,99699.79
2018-06-11T07:29:30.679Z,99698.39
2018-06-11T07:31:59.886Z,99700.24
2018-06-11T07:34:28.901Z,99697.48
2018-06-11T07:36:57.937Z,99702.60
2018-06-11T07:39:26.929Z,99701.05
2018-06-11T07:41:56.005Z,99697.90
2018-06-11T07:44:25.065Z,99695.10
2018-06-11T07:46:54.080Z,99690.29
2018-06-11T07:49:23.099Z,99695.10
2018-06-11T07:51:52.096Z,99685.28
2018-06-11T07:54:21.099Z,99693.57
2018-06-11T07:56:50.157Z,99701.63
2018-06-11T07:59:19.198Z,99698.80
2018-06-11T08:01:48.214Z,99700.70
2018-06-11T08:04:17.205Z,99704.77
2018-06-11T08:06:46.219Z,99713.89
2018-06-11T08:09:15.227Z,99712.23
2018-06-11T08:11:44.224Z,99708.34
2018-06-11T08:14:13.266Z,99710.25
2018-06-11T08:16:42.251Z,99699.30
2018-06-11T08:19:11.280Z,99712.11
2018-06-11T08:21:40.270Z,99703.59
2018-06-11T08:24:09.811Z,99714.81
2018-06-11T08:26:38.791Z,99723.48
2018-06-11T08:29:08.029Z,99722.54
2018-06-11T08:31:37.039Z,99720.44
2018-06-11T08:34:06.118Z,99722.36
2018-06-11T08:36:35.128Z,99717.81
2018-06-11T08:39:06.187Z,99716.34
2018-06-11T08:41:35.214Z,99720.44
2018-06-11T08:44:04.437Z,99711.11
2018-06-11T08:46:33.430Z,99716.84
2018-06-11T08:49:02.410Z,99713.94
2018-06-11T08:51:31.960Z,99722.19
2018-06-11T08:54:01.050Z,99719.73
2018-06-11T08:56:30.052Z,99728.56
2018-06-11T08:58:59.051Z,99733.48
2018-06-11T09:01:28.068Z,99737.13
2018-06-11T09:03:57.038Z,99743.01
2018-06-11T09:06:26.035Z,99744.89
2018-06-11T09:08:55.039Z,99747.56
2018-06-11T09:11:24.101Z,99745.42
2018-06-11T09:13:53.202Z,99750.13
2018-06-11T09:16:22.330Z,99750.02
2018-06-11T09:18:51.406Z,99745.78
2018-06-11T09:21:20.490Z,99748.98
2018-06-11T09:23:49.515Z,99753.55
2018-06-11T09:26:18.525Z,99751.74
2018-06-11T09:28:47.521Z,99748.40
2018-06-11T09:31:16.542Z,99746.16
2018-06-11T09:33:45.547Z,99733.05
2018-06-11T09:36:14.542Z,99734.25
2018-06-11T09:38:43.574Z,99734.05
2018-06-11T09:41:12.596Z,99744.23
2018-06-11T09:43:41.681Z,99741.23
2018-06-11T09:46:10.643Z,99741.94
2018-06-11T09:48:39.654Z,99739.22
2018-06-11T09:51:08.963Z,99745.70
2018-06-11T09:53:37.998Z,99742.73
2018-06-11T09:56:07.137Z,99746.55
2018-06-11T09:58:36.131Z,99748.95
2018-06-11T10:01:05.223Z,99743.29
2018-06-11T10:03:34.265Z,99746.52
2018-06-11T10:06:03.235Z,99743.20
2018-06-11T10:08:32.232Z,99747.17
2018-06-11T10:11:01.266Z,99744.16
2018-06-11T10:13:30.273Z,99747.32
2018-06-11T10:15:59.334Z,99747.92
2018-06-11T10:18:28.306Z,99749.51
2018-06-11T10:20:57.349Z,99738.88
2018-06-11T10:23:26.375Z,99737.72
2018-06-11T10:25:55.548Z,99738.50
2018-06-11T10:28:24.600Z,99734.75
2018-06-11T10:30:53.690Z,99732.41
2018-06-11T10:33:23.710Z,99730.20
2018-06-11T10:35:52.760Z,99737.55
2018-06-11T10:38:21.741Z,99730.09
2018-06-11T10:40:51.967Z,99728.75
2018-06-11T10:43:20.997Z,99733.80
2018-06-11T10:45:50.011Z,99738.30
2018-06-11T10:48:19.055Z,99734.98
2018-06-11T10:50:48.129Z,99739.53
2018-06-11T10:53:17.139Z,99744.20
2018-06-11T10:55:46.150Z,99742.84
2018-06-11T10:58:15.126Z,99737.11
2018-06-11T11:00:44.171Z,99736.20
2018-06-11T11:03:13.225Z,99736.57
2018-06-11T11:05:42.258Z,99737.16
2018-06-11T11:08:11.288Z,99738.16
2018-06-11T11:10:40.459Z,99732.38
2018-06-11T11:13:09.544Z,99721.83
2018-06-11T11:15:38.551Z,99736.30
2018-06-11T11:18:07.576Z,99729.13
2018-06-11T11:20:36.580Z,99728.63
2018-06-11T11:23:05.627Z,99729.22
2018-06-11T11:25:37.602Z,99730.09
2018-06-11T11:28:06.644Z,99723.56
2018-06-11T11:30:35.632Z,99716.30
2018-06-11T11:33:04.658Z,99721.52
2018-06-11T11:35:33.659Z,99715.92
2018-06-11T11:38:02.650Z,99711.44
2018-06-11T11:40:31.683Z,99707.66
2018-06-11T11:43:00.687Z,99696.97
2018-06-11T11:45:32.209Z,99700.38
2018-06-11T11:48:01.196Z,99694.45
2018-06-11T11:50:30.245Z,99691.38
2018-06-11T11:52:59.327Z,99685.90
2018-06-11T11:55:28.608Z,99688.86
2018-06-11T11:57:58.876Z,99691.89
2018-06-11T12:00:28.334Z,99679.45
2018-06-11T12:02:57.369Z,99672.27
2018-06-11T12:05:26.944Z,99666.75
2018-06-11T12:07:56.683Z,99658.32
2018-06-11T12:10:25.936Z,99647.30
2018-06-11T12:12:54.921Z,99644.14
2018-06-11T12:15:23.994Z,99639.54
2018-06-11T12:17:53.119Z,99637.64
2018-06-11T12:20:22.357Z,99638.73
2018-06-11T12:22:51.406Z,99637.88
2018-06-11T12:25:20.412Z,99644.80
2018-06-11T12:27:49.462Z,99644.42
2018-06-11T12:30:18.510Z,99638.33
2018-06-11T12:32:47.488Z,99640.67
2018-06-11T12:35:16.540Z,99634.31
2018-06-11T12:37:45.525Z,99632.31
2018-06-11T12:40:14.543Z,99632.75
2018-06-11T12:42:43.538Z,99632.63
2018-06-11T12:45:12.624Z,99622.95
2018-06-11T12:47:41.684Z,99617.14
2018-06-11T12:50:10.743Z,99621.38
2018-06-11T12:52:39.752Z,99624.44
2018-06-11T12:55:08.781Z,99620.44
2018-06-11T12:57:37.843Z,99618.56
2018-06-11T13:00:06.826Z,99626.70
2018-06-11T13:02:35.825Z,99618.28
2018-06-11T13:05:04.845Z,99619.50
2018-06-11T13:07:33.894Z,99616.06
2018-06-11T13:10:02.946Z,99606.18
2018-06-11T13:12:32.274Z,99604.25
2018-06-11T13:15:01.266Z,99599.45
2018-06-11T13:17:30.270Z,99586.86
2018-06-11T13:19:59.669Z,99587.73
2018-06-11T13:22:28.676Z,99587.73
2018-06-11T13:24:57.661Z,99586.09
2018-06-11T13:27:26.768Z,99572.88
2018-06-11T13:29:55.733Z,99577.47
2018-06-11T13:32:24.845Z,99568.57
2018-06-11T13:34:53.830Z,99559.58
2018-06-11T13:37:22.834Z,99551.67
2018-06-11T13:39:51.843Z,99552.51
2018-06-11T13:42:20.834Z,99550.23
2018-06-11T13:44:49.874Z,99551.08
2018-06-11T13:47:18.912Z,99538.81
2018-06-11T13:49:47.900Z,99546.23
2018-06-11T13:52:16.888Z,99542.38
2018-06-11T13:54:45.898Z,99545.38
2018-06-11T13:57:18.592Z,99528.03
2018-06-11T13:59:47.591Z,99525.45
2018-06-11T14:02:16.555Z,99521.00
2018-06-11T14:04:45.568Z,99516.55
2018-06-11T14:07:14.636Z,99514.97
2018-06-11T14:09:43.640Z,99518.00
2018-06-11T14:12:12.636Z,99520.50
2018-06-11T14:14:41.699Z,99521.20
2018-06-11T14:17:10.663Z,99523.64
2018-06-11T14:19:39.666Z,99527.98
2018-06-11T14:22:08.650Z,99525.25
2018-06-11T14:24:37.656Z,99529.28
2018-06-11T14:27:06.675Z,99531.61
2018-06-11T14:29:35.676Z,99516.51
2018-06-11T14:32:04.708Z,99516.73
2018-06-11T14:34:33.696Z,99514.33
2018-06-11T14:37:02.769Z,99503.59
2018-06-11T14:39:31.851Z,99495.63
2018-06-11T14:42:00.892Z,99498.95
2018-06-11T14:44:29.904Z,99492.77
2018-06-11T14:46:58.901Z,99485.00
2018-06-11T14:49:27.928Z,99486.11
2018-06-11T14:51:59.890Z,99479.66
2018-06-11T14:54:28.903Z,99480.06
2018-06-11T14:56:57.994Z,99472.95
2018-06-11T14:59:26.986Z,99463.54
2018-06-11T15:01:55.981Z,99464.95
2018-06-11T15:04:25.070Z,99448.53
2018-06-11T15:06:54.163Z,99439.46
2018-06-11T15:09:23.257Z,99436.70
2018-06-11T15:11:52.175Z,99436.94
2018-06-11T15:14:21.162Z,99437.70
2018-06-11T15:16:50.326Z,99438.88
2018-06-11T15:19:19.286Z,99435.52
2018-06-11T15:21:48.409Z,99423.20
2018-06-11T15:24:17.408Z,99426.94
2018-06-11T15:26:48.275Z,99428.20
2018-06-11T15:29:17.287Z,99425.64
2018-06-11T15:31:46.289Z,99431.93
2018-06-11T15:34:15.326Z,99439.00
2018-06-11T15:36:44.378Z,99442.66
2018-06-11T15:39:13.375Z,99456.41
2018-06-11T15:41:42.413Z,99450.92
2018-06-11T15:44:11.542Z,99452.13
2018-06-11T15:46:40.554Z,99467.34
2018-06-11T15:49:09.606Z,99469.55
2018-06-11T15:51:38.814Z,99469.89
2018-06-11T15:54:07.974Z,99459.87
2018-06-11T15:56:36.963Z,99464.46
2018-06-11T15:59:05.909Z,99460.56
2018-06-11T16:01:35.080Z,99462.22
2018-06-11T16:04:04.063Z,99457.23
2018-06-11T16:06:33.072Z,99450.84
2018-06-11T16:09:06.732Z,99435.87
2018-06-11T16:11:35.740Z,99435.53
2018-06-11T16:14:04.894Z,99432.12
2018-06-11T16:16:33.903Z,99426.19
2018-06-11T16:19:02.979Z,99419.76
2018-06-11T16:21:32.087Z,99411.78
2018-06-11T16:24:01.086Z,99404.42
2018-06-11T16:26:30.134Z,99401.49
2018-06-11T16:28:59.118Z,99383.36
2018-06-11T16:31:28.207Z,99376.42
2018-06-11T16:33:57.172Z,99376.20
2018-06-11T16:36:26.207Z,99374.83
2018-06-11T16:38:55.215Z,99370.09
2018-06-11T16:41:24.298Z,99354.37
2018-06-11T16:43:53.259Z,99355.50
2018-06-11T16:46:22.225Z,99362.59
2018-06-11T16:48:51.236Z,99368.08
2018-06-11T16:51:20.208Z,99373.80
2018-06-11T16:53:49.209Z,99380.02
2018-06-11T16:56:18.379Z,99382.93
2018-06-11T16:58:47.404Z,99376.33
2018-06-11T17:01:16.474Z,99370.14
2018-06-11T17:03:45.495Z,99362.16
2018-06-11T17:06:14.548Z,99363.91
2018-06-11T17:08:43.648Z,99367.70
2018-06-11T17:11:12.622Z,99360.26
2018-06-11T17:13:41.663Z,99360.26
2018-06-11T17:16:10.618Z,99362.63
2018-06-11T17:18:39.656Z,99365.62
2018-06-11T17:21:08.612Z,99354.25
2018-06-11T17:23:37.631Z,99352.28
2018-06-11T17:26:06.769Z,99353.68
2018-06-11T17:28:35.758Z,99350.16
2018-06-11T17:31:05.230Z,99336.27
2018-06-11T17:33:34.261Z,99341.36
2018-06-11T17:36:03.285Z,99334.91
2018-06-11T17:38:32.291Z,99333.55
2018-06-11T17:41:01.349Z,99330.41
2018-06-11T17:43:30.400Z,99329.02
2018-06-11T17:45:59.756Z,99323.14
2018-06-11T17:48:28.745Z,99333.13
2018-06-11T17:50:57.743Z,99337.25
2018-06-11T17:53:26.743Z,99336.27
2018-06-11T17:55:55.902Z,99337.23
2018-06-11T17:58:24.942Z,99334.67
2018-06-11T18:00:53.971Z,99334.69
2018-06-11T18:03:23.168Z,99334.68
2018-06-11T18:05:52.173Z,99332.31
2018-06-11T18:08:21.216Z,99332.45
2018-06-11T18:10:50.564Z,99328.53
2018-06-11T18:13:19.531Z,99326.74
2018-06-11T18:15:48.525Z,99340.83
2018-06-11T18:18:17.557Z,99348.20
2018-06-11T18:20:46.750Z,99356.81
2018-06-11T18:23:15.731Z,99364.97
2018-06-11T18:25:44.762Z,99368.48
2018-06-11T18:28:13.742Z,99365.45
2018-06-11T18:30:42.725Z,99371.44
2018-06-11T18:33:11.696Z,99379.27
2018-06-11T18:35:40.712Z,99384.26
2018-06-11T18:38:09.690Z,99390.13
2018-06-11T18:40:38.667Z,99390.59
2018-06-11T18:43:07.795Z,99392.50
2018-06-11T18:45:37.275Z,99389.72
2018-06-11T18:48:06.362Z,99389.84
2018-06-11T18:50:35.358Z,99396.12
2018-06-11T18:53:04.366Z,99398.28
2018-06-11T18:55:33.372Z,99391.84
2018-06-11T18:58:02.416Z,99387.11
2018-06-11T19:00:31.640Z,99385.50
2018-06-11T19:03:00.583Z,99384.69
2018-06-11T19:05:29.663Z,99381.13
2018-06-11T19:07:58.762Z,99371.91
2018-06-11T19:10:27.734Z,99369.31
2018-06-11T19:12:56.713Z,99370.25
2018-06-11T19:15:25.825Z,99354.72
2018-06-11T19:17:54.804Z,99354.31
2018-06-11T19:20:23.856Z,99353.08
2018-06-11T19:22:52.827Z,99356.69
2018-06-11T19:25:21.820Z,99349.26
2018-06-11T19:27:50.807Z,99339.98
2018-06-11T19:30:19.904Z,99338.34
2018-06-11T19:32:48.881Z,99341.78
2018-06-11T19:35:18.233Z,99342.12
2018-06-11T19:37:47.158Z,99340.81
2018-06-11T19:40:16.167Z,99340.31
2018-06-11T19:42:45.276Z,99331.30
2018-06-11T19:45:14.526Z,99325.77
2018-06-11T19:47:43.640Z,99324.67
2018-06-11T19:50:12.703Z,99323.22
2018-06-11T19:52:41.647Z,99332.08
2018-06-11T19:55:10.633Z,99330.85
2018-06-11T19:57:39.692Z,99340.48
2018-06-11T20:00:08.796Z,99344.52
2018-06-11T20:02:37.829Z,99339.80
2018-06-11T20:05:06.964Z,99338.61
2018-06-11T20:07:36.051Z,99340.45
2018-06-11T20:10:05.158Z,99345.41
2018-06-11T20:12:34.226Z,99355.75
2018-06-11T20:15:03.248Z,99370.89
2018-06-11T20:17:32.963Z,99376.89
2018-06-11T20:20:01.986Z,99373.73
2018-06-11T20:22:31.131Z,99364.68
2018-06-11T20:25:00.191Z,99363.61
2018-06-11T20:27:29.142Z,99369.41
2018-06-11T20:29:58.116Z,99370.77
2018-06-11T20:32:27.176Z,99367.49
2018-06-11T20:34:56.104Z,99365.12
2018-06-11T20:37:25.085Z,99354.31
2018-06-11T20:39:54.197Z,99361.28
2018-06-11T20:42:23.182Z,99367.66
2018-06-11T20:44:52.118Z,99367.30
2018-06-11T20:47:21.097Z,99368.63
2018-06-11T20:49:50.065Z,99372.48
2018-06-11T20:52:19.040Z,99373.69
2018-06-11T20:54:48.010Z,99375.16
2018-06-11T20:57:16.974Z,99369.13
2018-06-11T20:59:45.921Z,99365.62
2018-06-11T21:02:14.879Z,99364.16
2018-06-11T21:04:44.044Z,99363.19
2018-06-11T21:07:13.035Z,99354.67
2018-06-11T21:09:42.032Z,99361.47
2018-06-11T21:12:11.304Z,99362.41
2018-06-11T21:14:40.632Z,99364.42
2018-06-11T21:17:09.681Z,99359.91
2018-06-11T21:19:38.633Z,99358.59
2018-06-11T21:22:07.642Z,99364.73
2018-06-11T21:24:36.625Z,99365.25
2018-06-11T21:27:05.687Z,99361.27
2018-06-11T21:29:34.657Z,99363.61
2018-06-11T21:32:03.774Z,99362.79
2018-06-11T21:34:32.806Z,99358.59
2018-06-11T21:37:01.854Z,99357.04
2018-06-11T21:39:31.225Z,99352.95
2018-06-11T21:42:00.260Z,99344.56
2018-06-11T21:44:29.216Z,99347.67
2018-06-11T21:46:58.292Z,99346.50
2018-06-11T21:49:27.242Z,99348.72
2018-06-11T21:51:56.217Z,99351.21
2018-06-11T21:54:25.156Z,99356.30
2018-06-11T21:56:54.129Z,99353.27
2018-06-11T21:59:23.108Z,99358.56
2018-06-11T22:01:52.091Z,99351.40
2018-06-11T22:04:21.073Z,99350.15
2018-06-11T22:06:50.068Z,99349.67
2018-06-11T22:09:19.036Z,99344.22
2018-06-11T22:11:48.031Z,99326.72
2018-06-11T22:14:17.018Z,99324.58
2018-06-11T22:16:46.139Z,99326.27
2018-06-11T22:19:15.494Z,99323.75
2018-06-11T22:21:44.517Z,99321.38
2018-06-11T22:24:13.518Z,99315.05
2018-06-11T22:26:42.626Z,99320.73
2018-06-11T22:29:11.727Z,99319.59
2018-06-11T22:31:40.676Z,99318.90
2018-06-11T22:34:09.646Z,99313.81
2018-06-11T22:36:38.740Z,99319.84
2018-06-11T22:39:08.487Z,99325.00
2018-06-11T22:41:37.568Z,99328.97
2018-06-11T22:44:06.570Z,99331.06
2018-06-11T22:46:35.526Z,99315.47
2018-06-11T22:49:04.501Z,99322.50
2018-06-11T22:51:33.528Z,99319.20
2018-06-11T22:54:02.696Z,99314.99
2018-06-11T22:56:31.697Z,99314.66
2018-06-11T22:59:00.661Z,99313.23
2018-06-11T23:01:29.627Z,99313.61
2018-06-11T23:03:58.573Z,99314.77
2018-06-11T23:06:27.527Z,99307.06
2018-06-11T23:08:56.511Z,99317.16
2018-06-11T23:11:25.466Z,99315.66
2018-06-11T23:13:54.492Z,99309.31
2018-06-11T23:16:23.449Z,99307.37
2018-06-11T23:18:52.466Z,99304.08
2018-06-11T23:21:21.409Z,99305.16
2018-06-11T23:23:50.375Z,99305.02
2018-06-11T23:26:19.366Z,99301.86
2018-06-11T23:28:48.334Z,99308.59
2018-06-11T23:31:17.298Z,99301.57
2018-06-11T23:33:46.269Z,99304.52
2018-06-11T23:36:15.266Z,99296.42
2018-06-11T23:38:44.294Z,99290.56
2018-06-11T23:41:13.421Z,99296.52
2018-06-11T23:43:42.507Z,99296.95
2018-06-11T23:46:11.450Z,99297.58
2018-06-11T23:48:40.402Z,99299.95
2018-06-11T23:51:09.405Z,99301.16
2018-06-11T23:53:38.416Z,99296.08
2018-06-11T23:56:07.406Z,99297.58
2018-06-11T23:58:36.346Z,99292.35
